createdAt,value
2019-06-07T00:00:40.365Z,74.72
2019-06-07T00:02:46.384Z,74.93
2019-06-07T00:04:53.224Z,75.13
2019-06-07T00:07:01.222Z,75.45
2019-06-07T00:09:10.086Z,75.79
2019-06-07T00:11:20.028Z,75.99
2019-06-07T00:13:24.982Z,76.43
2019-06-07T00:15:31.593Z,76.43
2019-06-07T00:17:38.012Z,76.69
2019-06-07T00:19:44.400Z,76.83
2019-06-07T00:22:15.615Z,77.06
2019-06-07T00:23:58.971Z,77.52
2019-06-07T00:26:05.895Z,77.54
2019-06-07T00:28:13.232Z,77.81
2019-06-07T00:30:39.998Z,78.00
2019-06-07T00:32:30.477Z,78.10
2019-06-07T00:34:36.868Z,78.18
2019-06-07T00:36:43.292Z,78.39
2019-06-07T00:38:49.684Z,78.84
2019-06-07T00:40:56.132Z,79.02
2019-06-07T00:43:03.585Z,79.42
2019-06-07T00:45:11.407Z,79.64
2019-06-07T00:47:23.099Z,80.11
2019-06-07T00:49:40.725Z,80.19
2019-06-07T00:51:49.902Z,80.49
2019-06-07T00:53:43.514Z,80.96
2019-06-07T00:55:50.184Z,81.25
2019-06-07T00:57:57.985Z,81.72
2019-06-07T01:00:06.588Z,82.00
2019-06-07T01:02:14.602Z,82.35
2019-06-07T01:04:23.618Z,82.82
2019-06-07T01:06:29.555Z,82.84
2019-06-07T01:08:37.144Z,83.32
2019-06-07T01:10:58.822Z,83.38
2019-06-07T01:12:51.783Z,83.79
2019-06-07T01:14:58.408Z,84.21
2019-06-07T01:17:41.010Z,84.71
2019-06-07T01:19:36.534Z,84.76
2019-06-07T01:21:42.936Z,85.15
2019-06-07T01:24:10.707Z,85.26
2019-06-07T01:25:57.785Z,85.43
2019-06-07T01:28:04.307Z,85.47
2019-06-07T01:30:13.247Z,85.64
2019-06-07T01:32:20.958Z,85.44
2019-06-07T01:34:27.026Z,86.06
2019-06-07T01:36:33.521Z,86.22
2019-06-07T01:38:39.892Z,86.60
2019-06-07T01:40:46.300Z,86.99
2019-06-07T01:42:52.680Z,87.28
2019-06-07T01:44:59.136Z,87.63
2019-06-07T01:47:05.788Z,87.57
2019-06-07T01:49:12.804Z,87.49
2019-06-07T01:51:20.068Z,87.74
2019-06-07T01:53:29.139Z,87.66
2019-06-07T01:55:34.778Z,87.65
2019-06-07T01:57:48.166Z,88.09
2019-06-07T01:59:49.254Z,88.22
2019-06-07T02:01:55.711Z,88.46
2019-06-07T02:04:03.331Z,88.55
2019-06-07T02:06:10.092Z,88.74
2019-06-07T02:08:16.512Z,88.98
2019-06-07T02:10:26.188Z,89.35
2019-06-07T02:12:40.331Z,89.64
2019-06-07T02:14:39.484Z,89.63
2019-06-07T02:16:45.913Z,89.71
2019-06-07T02:19:01.696Z,89.78
2019-06-07T02:21:01.007Z,90.02
2019-06-07T02:23:07.407Z,90.24
2019-06-07T02:27:24.630Z,90.12
2019-06-07T02:29:33.282Z,90.13
2019-06-07T02:31:39.833Z,90.01
2019-06-07T02:33:47.617Z,89.94
2019-06-07T02:35:54.021Z,89.93
2019-06-07T02:38:00.559Z,89.96
2019-06-07T02:40:09.270Z,90.12
2019-06-07T02:42:15.742Z,90.02
2019-06-07T02:44:24.031Z,90.03
2019-06-07T02:46:40.114Z,89.77
2019-06-07T02:48:40.405Z,89.73
2019-06-07T02:50:46.855Z,89.61
2019-06-07T02:52:53.395Z,89.46
2019-06-07T02:54:59.833Z,89.23
2019-06-07T02:57:06.330Z,88.85
2019-06-07T02:59:12.867Z,88.57
2019-06-07T03:01:19.567Z,88.46
2019-06-07T03:03:28.933Z,88.24
2019-06-07T03:05:38.787Z,88.06
2019-06-07T03:07:46.342Z,87.79
2019-06-07T03:09:53.538Z,87.45
2019-06-07T03:12:03.126Z,87.33
2019-06-07T03:14:12.537Z,87.03
2019-06-07T03:16:21.278Z,86.28
2019-06-07T03:18:45.487Z,86.04
2019-06-07T03:21:04.983Z,85.65
2019-06-07T03:23:04.691Z,85.43
2019-06-07T03:25:10.700Z,85.16
2019-06-07T03:27:35.026Z,84.73
2019-06-07T03:29:28.535Z,84.42
2019-06-07T03:31:41.668Z,83.65
2019-06-07T03:33:45.170Z,83.15
2019-06-07T03:35:50.047Z,82.84
2019-06-07T03:37:56.438Z,82.12
2019-06-07T03:40:02.921Z,82.07
2019-06-07T03:42:09.372Z,81.48
2019-06-07T03:44:15.855Z,81.39
2019-06-07T03:46:22.253Z,81.53
2019-06-07T03:48:30.206Z,81.44
2019-06-07T03:50:41.826Z,81.56
2019-06-07T03:52:45.311Z,81.81
2019-06-07T03:54:51.734Z,81.68
2019-06-07T03:56:58.421Z,81.93
2019-06-07T03:59:06.945Z,81.32
2019-06-07T04:01:13.476Z,81.04
2019-06-07T04:03:33.296Z,80.48
2019-06-07T04:05:28.758Z,80.02
2019-06-07T04:07:43.406Z,78.87
2019-06-07T04:09:45.983Z,78.50
2019-06-07T04:11:52.525Z,76.92
2019-06-07T04:13:58.976Z,75.99
2019-06-07T04:16:07.302Z,73.56
2019-06-07T04:18:13.759Z,72.57
2019-06-07T04:20:20.269Z,69.56
2019-06-07T04:22:26.804Z,66.99
2019-06-07T04:24:38.440Z,63.49
2019-06-07T04:26:43.974Z,59.73
2019-06-07T04:30:58.524Z,56.41
2019-06-07T04:33:04.999Z,56.48
2019-06-07T04:35:11.890Z,53.54
2019-06-07T04:37:19.063Z,50.14
2019-06-07T04:39:29.906Z,48.45
2019-06-07T04:41:40.908Z,46.34
2019-06-07T04:43:50.772Z,43.66
2019-06-07T04:45:59.748Z,42.48
2019-06-07T04:48:08.333Z,41.13
2019-06-07T04:50:14.396Z,40.72
2019-06-07T04:52:20.830Z,39.95
2019-06-07T04:54:31.075Z,38.85
2019-06-07T04:56:41.463Z,38.19
2019-06-07T04:58:45.589Z,37.04
2019-06-07T05:00:59.298Z,37.43
2019-06-07T05:03:02.709Z,37.28
2019-06-07T05:05:09.508Z,36.23
2019-06-07T05:07:15.903Z,34.68
2019-06-07T05:09:22.333Z,34.12
2019-06-07T05:11:33.349Z,32.98
2019-06-07T05:13:43.134Z,32.30
2019-06-07T05:15:47.762Z,32.33
2019-06-07T05:17:54.236Z,32.85
2019-06-07T05:20:00.671Z,33.12
2019-06-07T05:22:07.241Z,31.15
2019-06-07T05:24:13.652Z,31.27
2019-06-07T05:26:21.296Z,30.01
2019-06-07T05:28:27.759Z,29.42
2019-06-07T05:32:49.472Z,28.96
2019-06-07T05:34:55.950Z,29.80
2019-06-07T05:37:11.378Z,29.40
2019-06-07T05:39:12.502Z,29.83
2019-06-07T05:41:19.070Z,29.53
2019-06-07T05:43:28.907Z,29.76
2019-06-07T05:45:39.279Z,29.45
2019-06-07T05:47:50.628Z,27.93
2019-06-07T05:49:53.376Z,27.94
2019-06-07T05:52:00.924Z,26.74
2019-06-07T05:54:07.528Z,25.70
2019-06-07T05:56:14.794Z,26.47
2019-06-07T05:58:22.101Z,25.58
2019-06-07T06:00:31.354Z,25.28
2019-06-07T06:02:56.591Z,25.45
2019-06-07T06:04:49.288Z,24.89
2019-06-07T06:06:54.172Z,24.54
2019-06-07T06:09:13.347Z,23.84
2019-06-07T06:11:08.844Z,23.68
2019-06-07T06:13:15.456Z,23.19
2019-06-07T06:15:41.602Z,22.80
2019-06-07T06:17:30.222Z,23.19
2019-06-07T06:19:40.648Z,23.04
2019-06-07T06:21:46.580Z,23.07
2019-06-07T06:23:54.068Z,22.97
2019-06-07T06:26:00.902Z,22.64
2019-06-07T06:28:12.274Z,22.06
2019-06-07T06:30:16.586Z,21.58
2019-06-07T06:34:31.181Z,21.37
2019-06-07T06:36:39.743Z,22.61
2019-06-07T06:38:47.134Z,22.40
2019-06-07T06:41:13.919Z,21.75
2019-06-07T06:43:02.137Z,21.32
2019-06-07T06:45:12.061Z,20.04
2019-06-07T06:47:18.565Z,21.17
2019-06-07T06:49:25.100Z,21.41
2019-06-07T06:51:31.627Z,22.08
2019-06-07T06:53:40.048Z,21.71
2019-06-07T06:55:48.467Z,21.27
2019-06-07T06:57:54.494Z,20.28
2019-06-07T07:00:00.896Z,20.59
2019-06-07T07:02:07.354Z,19.25
2019-06-07T07:04:14.751Z,18.58
2019-06-07T07:06:26.328Z,19.11
2019-06-07T07:08:31.900Z,18.34
2019-06-07T07:10:43.250Z,19.75
2019-06-07T07:12:52.454Z,19.72
2019-06-07T07:14:59.316Z,18.80
2019-06-07T07:17:05.839Z,18.39
2019-06-07T07:19:12.377Z,18.45
2019-06-07T07:21:18.920Z,17.34
2019-06-07T07:23:25.307Z,17.65
2019-06-07T07:25:32.045Z,18.46
2019-06-07T07:27:38.443Z,17.98
2019-06-07T07:29:49.539Z,18.41
2019-06-07T07:31:56.111Z,17.92
2019-06-07T07:36:23.283Z,17.22
2019-06-07T07:38:18.214Z,17.10
2019-06-07T07:42:32.800Z,18.00
2019-06-07T07:44:40.212Z,17.17
2019-06-07T07:46:46.673Z,17.95
2019-06-07T07:48:54.698Z,18.43
2019-06-07T07:51:03.387Z,18.58
2019-06-07T07:53:10.178Z,19.63
2019-06-07T07:55:18.213Z,19.24
2019-06-07T07:57:24.743Z,18.29
2019-06-07T07:59:42.003Z,19.54
2019-06-07T08:01:40.432Z,18.84
2019-06-07T08:03:48.133Z,17.87
2019-06-07T08:05:58.360Z,17.14
2019-06-07T08:08:05.378Z,17.48
2019-06-07T08:10:10.598Z,16.46
2019-06-07T08:12:17.071Z,16.12
2019-06-07T08:14:24.525Z,19.36
2019-06-07T08:16:30.920Z,20.64
2019-06-07T08:18:37.466Z,20.61
2019-06-07T08:21:04.947Z,20.02
2019-06-07T08:22:58.789Z,18.59
2019-06-07T08:25:04.517Z,18.42
2019-06-07T08:27:26.014Z,19.28
2019-06-07T08:29:18.836Z,19.39
2019-06-07T08:31:25.251Z,20.09
2019-06-07T08:33:31.656Z,21.56
2019-06-07T08:39:59.169Z,23.36
2019-06-07T08:42:15.433Z,25.37
2019-06-07T08:44:23.189Z,29.74
2019-06-07T08:46:20.814Z,33.30
2019-06-07T08:48:29.961Z,33.81
2019-06-07T08:50:35.374Z,35.05
2019-06-07T08:52:41.837Z,36.45
2019-06-07T08:54:48.314Z,36.29
2019-06-07T08:57:06.652Z,36.12
2019-06-07T08:59:10.840Z,37.18
2019-06-07T09:01:12.550Z,37.37
2019-06-07T09:03:20.576Z,37.53
2019-06-07T09:05:27.675Z,38.13
2019-06-07T09:07:34.148Z,38.95
2019-06-07T09:09:40.716Z,38.87
2019-06-07T09:11:48.647Z,39.06
2019-06-07T09:13:57.195Z,38.23
2019-06-07T09:16:08.080Z,38.14
2019-06-07T09:20:35.563Z,37.82
2019-06-07T09:22:28.847Z,37.03
2019-06-07T09:24:35.239Z,36.86
2019-06-07T09:26:41.640Z,36.57
2019-06-07T09:28:48.694Z,36.81
2019-06-07T09:30:55.872Z,37.75
2019-06-07T09:33:06.671Z,38.19
2019-06-07T09:35:17.267Z,37.51
2019-06-07T09:38:03.763Z,37.51
2019-06-07T09:39:31.071Z,37.83
2019-06-07T09:41:47.618Z,37.43
2019-06-07T09:44:01.808Z,38.09
2019-06-07T09:45:54.080Z,38.71
2019-06-07T09:48:04.429Z,39.38
2019-06-07T09:50:12.191Z,39.05
2019-06-07T09:52:16.526Z,38.35
2019-06-07T09:55:03.759Z,38.53
2019-06-07T09:56:30.952Z,39.59
2019-06-07T09:58:54.202Z,39.40
2019-06-07T10:00:45.516Z,40.61
2019-06-07T10:02:51.939Z,40.37
2019-06-07T10:05:01.668Z,39.40
2019-06-07T10:07:27.146Z,39.83
2019-06-07T10:11:25.062Z,40.51
2019-06-07T10:13:31.457Z,40.47
2019-06-07T10:15:37.962Z,39.81
2019-06-07T10:17:44.382Z,39.52
2019-06-07T10:19:50.782Z,38.63
2019-06-07T10:21:57.169Z,38.41
2019-06-07T10:24:03.647Z,38.20
2019-06-07T10:26:10.230Z,37.61
2019-06-07T10:28:16.690Z,37.32
2019-06-07T10:30:24.282Z,36.70
2019-06-07T10:32:30.751Z,36.59
2019-06-07T10:34:37.204Z,36.58
2019-06-07T10:36:43.748Z,37.06
2019-06-07T10:38:50.360Z,36.60
2019-06-07T10:40:56.773Z,37.12
2019-06-07T10:43:03.245Z,37.50
2019-06-07T10:45:12.180Z,37.24
2019-06-07T10:47:18.348Z,36.56
2019-06-07T10:49:24.732Z,36.29
2019-06-07T10:51:31.847Z,35.90
2019-06-07T10:53:38.332Z,35.19
2019-06-07T10:55:44.810Z,35.16
2019-06-07T10:57:51.210Z,35.58
2019-06-07T10:59:57.739Z,35.82
2019-06-07T11:02:05.607Z,35.78
2019-06-07T11:04:13.815Z,34.58
2019-06-07T11:06:20.388Z,34.63
2019-06-07T11:08:26.925Z,34.20
2019-06-07T11:10:33.339Z,33.48
2019-06-07T11:12:39.793Z,33.84
2019-06-07T11:14:46.423Z,35.25
2019-06-07T11:16:54.424Z,34.81
2019-06-07T11:19:00.893Z,34.86
2019-06-07T11:21:07.974Z,34.79
2019-06-07T11:23:14.607Z,35.57
2019-06-07T11:25:21.136Z,36.30
2019-06-07T11:27:28.492Z,36.29
2019-06-07T11:29:34.928Z,35.86
2019-06-07T11:31:41.347Z,36.06
2019-06-07T11:33:47.819Z,36.68
2019-06-07T11:35:54.299Z,36.93
2019-06-07T11:38:02.927Z,37.58
2019-06-07T11:40:27.813Z,37.45
2019-06-07T11:42:20.035Z,37.75
2019-06-07T11:44:26.678Z,37.53
2019-06-07T11:46:33.215Z,37.14
2019-06-07T11:48:39.634Z,36.76
2019-06-07T11:50:46.329Z,36.95
2019-06-07T11:52:52.819Z,36.88
2019-06-07T11:54:59.217Z,36.86
2019-06-07T11:57:06.836Z,36.55
2019-06-07T11:59:13.462Z,34.43
2019-06-07T12:01:19.882Z,34.82
2019-06-07T12:03:26.293Z,35.50
2019-06-07T12:05:32.669Z,35.52
2019-06-07T12:07:39.156Z,35.34
2019-06-07T12:09:56.018Z,34.88
2019-06-07T12:11:53.939Z,34.35
2019-06-07T12:14:01.544Z,34.55
2019-06-07T12:16:09.070Z,34.63
2019-06-07T12:18:15.689Z,34.30
2019-06-07T12:20:22.216Z,33.68
2019-06-07T12:22:28.694Z,33.66
2019-06-07T12:24:35.091Z,33.07
2019-06-07T12:26:41.488Z,33.33
2019-06-07T12:28:47.915Z,32.64
2019-06-07T12:30:55.235Z,33.28
2019-06-07T12:33:01.754Z,34.00
2019-06-07T12:35:09.728Z,34.19
2019-06-07T12:37:19.351Z,33.33
2019-06-07T12:39:24.215Z,33.08
2019-06-07T12:41:30.691Z,32.38
2019-06-07T12:43:37.065Z,32.51
2019-06-07T12:45:45.417Z,32.98
2019-06-07T12:47:51.582Z,33.14
2019-06-07T12:49:57.984Z,33.65
2019-06-07T12:52:04.644Z,32.77
2019-06-07T12:54:11.066Z,32.96
2019-06-07T12:56:17.788Z,33.33
2019-06-07T12:58:33.661Z,33.39
2019-06-07T13:00:32.798Z,33.30
2019-06-07T13:02:39.395Z,34.28
2019-06-07T13:04:45.783Z,34.12
2019-06-07T13:06:52.197Z,33.40
2019-06-07T13:08:58.576Z,33.25
2019-06-07T13:11:16.011Z,33.03
2019-06-07T13:13:15.727Z,33.03
2019-06-07T13:15:24.506Z,33.32
2019-06-07T13:17:30.619Z,33.97
2019-06-07T13:19:37.052Z,33.78
2019-06-07T13:21:43.489Z,34.07
2019-06-07T13:23:49.879Z,34.36
2019-06-07T13:25:56.294Z,33.08
2019-06-07T13:28:02.691Z,31.92
2019-06-07T13:30:11.303Z,32.00
2019-06-07T13:32:17.670Z,32.32
2019-06-07T13:34:24.329Z,33.60
2019-06-07T13:36:31.267Z,34.29
2019-06-07T13:38:37.660Z,34.35
2019-06-07T13:40:46.403Z,34.24
2019-06-07T13:42:52.940Z,34.51
2019-06-07T13:44:59.347Z,34.45
2019-06-07T13:47:06.100Z,34.29
2019-06-07T13:49:12.486Z,34.37
2019-06-07T13:51:20.594Z,34.50
2019-06-07T13:53:27.008Z,34.94
2019-06-07T13:55:34.029Z,34.69
2019-06-07T13:57:40.508Z,34.75
2019-06-07T13:59:47.589Z,34.23
2019-06-07T14:01:54.010Z,33.86
2019-06-07T14:04:00.549Z,33.85
2019-06-07T14:06:08.045Z,33.59
2019-06-07T14:08:14.509Z,33.76
2019-06-07T14:10:21.667Z,33.18
2019-06-07T14:12:28.274Z,34.21
2019-06-07T14:14:34.724Z,34.64
2019-06-07T14:16:41.141Z,33.98
2019-06-07T14:18:47.780Z,33.74
2019-06-07T14:20:54.167Z,34.04
2019-06-07T14:23:02.155Z,33.95
2019-06-07T14:25:12.142Z,34.70
2019-06-07T14:27:18.608Z,34.14
2019-06-07T14:29:25.533Z,34.72
2019-06-07T14:31:32.325Z,34.22
2019-06-07T14:33:38.954Z,34.61
2019-06-07T14:35:46.525Z,34.60
2019-06-07T14:37:53.006Z,34.59
2019-06-07T14:39:59.481Z,34.45
2019-06-07T14:42:10.019Z,34.72
2019-06-07T14:44:14.094Z,34.75
2019-06-07T14:46:20.566Z,34.83
2019-06-07T14:48:28.023Z,35.12
2019-06-07T14:50:34.626Z,35.60
2019-06-07T14:52:41.010Z,35.28
2019-06-07T14:54:47.767Z,35.67
2019-06-07T14:56:54.192Z,35.79
2019-06-07T14:59:00.654Z,35.93
2019-06-07T15:01:07.166Z,35.75
2019-06-07T15:03:13.720Z,35.78
2019-06-07T15:05:24.922Z,35.71
2019-06-07T15:07:32.921Z,35.35
2019-06-07T15:09:39.468Z,35.19
2019-06-07T15:11:45.947Z,35.19
2019-06-07T15:13:52.496Z,35.60
2019-06-07T15:15:58.942Z,35.30
2019-06-07T15:18:06.493Z,35.33
2019-06-07T15:20:13.287Z,35.23
2019-06-07T15:22:19.996Z,35.31
2019-06-07T15:24:26.390Z,35.32
2019-06-07T15:26:32.853Z,35.23
2019-06-07T15:28:39.236Z,34.97
2019-06-07T15:30:53.624Z,34.95
2019-06-07T15:33:04.435Z,34.88
2019-06-07T15:35:12.642Z,35.47
2019-06-07T15:37:21.121Z,35.76
2019-06-07T15:39:28.468Z,35.77
2019-06-07T15:41:37.344Z,35.59
2019-06-07T15:43:44.033Z,35.93
2019-06-07T15:45:50.525Z,35.63
2019-06-07T15:47:58.191Z,35.68
2019-06-07T15:50:10.710Z,35.68
2019-06-07T15:52:17.394Z,35.17
2019-06-07T15:54:27.172Z,35.15
2019-06-07T15:56:37.085Z,34.87
2019-06-07T15:58:43.630Z,34.84
2019-06-07T16:00:50.297Z,35.00
2019-06-07T16:02:58.608Z,34.96
2019-06-07T16:05:16.437Z,35.34
2019-06-07T16:07:24.355Z,35.96
2019-06-07T16:09:32.486Z,36.48
2019-06-07T16:11:39.067Z,36.79
2019-06-07T16:13:47.250Z,36.82
2019-06-07T16:15:55.412Z,37.07
2019-06-07T16:18:02.117Z,36.92
2019-06-07T16:20:09.955Z,36.68
2019-06-07T16:22:16.569Z,36.39
2019-06-07T16:24:24.473Z,36.11
2019-06-07T16:26:31.513Z,36.22
2019-06-07T16:28:38.302Z,36.75
2019-06-07T16:30:44.882Z,36.85
2019-06-07T16:32:51.704Z,37.25
2019-06-07T16:34:58.110Z,37.17
2019-06-07T16:37:05.014Z,37.62
2019-06-07T16:39:11.552Z,37.58
2019-06-07T16:41:18.135Z,37.69
2019-06-07T16:43:24.614Z,37.78
2019-06-07T16:45:31.216Z,37.99
2019-06-07T16:47:42.997Z,38.08
2019-06-07T16:49:49.196Z,38.71
2019-06-07T16:51:56.934Z,38.59
2019-06-07T16:54:07.952Z,39.01
2019-06-07T16:56:13.906Z,39.10
2019-06-07T16:58:20.428Z,39.11
2019-06-07T17:00:28.613Z,39.13
2019-06-07T17:02:35.082Z,39.25
2019-06-07T17:04:41.844Z,39.75
2019-06-07T17:06:48.347Z,40.29
2019-06-07T17:08:56.607Z,40.64
2019-06-07T17:11:03.008Z,40.89
2019-06-07T17:13:09.597Z,41.47
2019-06-07T17:15:18.954Z,41.73
2019-06-07T17:17:25.351Z,41.88
2019-06-07T17:19:32.012Z,42.31
2019-06-07T17:21:39.263Z,42.82
2019-06-07T17:23:45.923Z,43.36
2019-06-07T17:25:52.588Z,43.92
2019-06-07T17:27:59.160Z,44.16
2019-06-07T17:30:11.538Z,44.35
2019-06-07T17:32:18.025Z,44.58
2019-06-07T17:34:24.494Z,45.08
2019-06-07T17:36:30.959Z,45.36
2019-06-07T17:38:37.347Z,45.78
2019-06-07T17:40:44.954Z,46.31
2019-06-07T17:42:52.672Z,46.44
2019-06-07T17:44:59.081Z,46.62
2019-06-07T17:47:05.542Z,47.12
2019-06-07T17:49:15.459Z,47.56
2019-06-07T17:51:21.917Z,47.96
2019-06-07T17:53:30.500Z,48.28
2019-06-07T17:55:36.581Z,49.00
2019-06-07T17:57:44.310Z,49.38
2019-06-07T17:59:51.020Z,49.68
2019-06-07T18:02:14.218Z,50.09
2019-06-07T18:04:06.949Z,50.58
2019-06-07T18:06:16.111Z,50.96
2019-06-07T18:08:25.604Z,51.37
2019-06-07T18:10:38.679Z,51.88
2019-06-07T18:12:46.027Z,51.99
2019-06-07T18:14:53.941Z,52.49
2019-06-07T18:17:00.628Z,52.97
2019-06-07T18:19:07.331Z,53.26
2019-06-07T18:21:13.809Z,53.77
2019-06-07T18:23:20.300Z,54.21
2019-06-07T18:25:26.762Z,54.68
2019-06-07T18:27:33.302Z,54.72
2019-06-07T18:29:40.829Z,55.04
2019-06-07T18:31:47.237Z,55.40
2019-06-07T18:33:55.079Z,55.85
2019-06-07T18:36:01.750Z,56.07
2019-06-07T18:38:10.791Z,56.67
2019-06-07T18:40:16.662Z,57.02
2019-06-07T18:42:23.085Z,57.28
2019-06-07T18:44:29.680Z,57.46
2019-06-07T18:46:36.074Z,57.55
2019-06-07T18:48:42.534Z,57.85
2019-06-07T18:50:49.041Z,58.22
2019-06-07T18:52:55.649Z,58.60
2019-06-07T18:55:02.126Z,58.87
2019-06-07T18:57:08.738Z,59.12
2019-06-07T18:59:15.329Z,59.38
2019-06-07T19:01:23.821Z,59.62
2019-06-07T19:03:29.911Z,60.16
2019-06-07T19:05:36.893Z,60.65
2019-06-07T19:07:43.821Z,60.95
2019-06-07T19:09:50.608Z,61.75
2019-06-07T19:11:57.163Z,62.14
2019-06-07T19:14:03.705Z,62.25
2019-06-07T19:16:10.249Z,62.90
2019-06-07T19:18:16.639Z,63.38
2019-06-07T19:20:23.457Z,63.11
2019-06-07T19:22:29.914Z,63.14
2019-06-07T19:24:36.298Z,63.27
2019-06-07T19:26:42.748Z,63.68
2019-06-07T19:28:49.198Z,63.75
2019-06-07T19:30:57.151Z,64.01
2019-06-07T19:33:03.814Z,63.97
2019-06-07T19:35:11.104Z,64.16
2019-06-07T19:37:17.692Z,64.27
2019-06-07T19:39:24.103Z,64.64
2019-06-07T19:41:30.515Z,64.64
2019-06-07T19:43:36.938Z,64.71
2019-06-07T19:45:43.401Z,64.83
2019-06-07T19:47:49.869Z,64.91
2019-06-07T19:49:56.744Z,64.90
2019-06-07T19:52:03.318Z,64.59
2019-06-07T19:54:09.740Z,65.01
2019-06-07T19:56:16.258Z,65.28
2019-06-07T19:58:22.658Z,65.38
2019-06-07T20:00:29.286Z,65.12
2019-06-07T20:02:36.130Z,65.28
2019-06-07T20:04:42.609Z,65.43
2019-06-07T20:06:49.993Z,65.84
2019-06-07T20:08:56.616Z,66.07
2019-06-07T20:11:03.057Z,65.88
2019-06-07T20:13:09.632Z,66.36
2019-06-07T20:15:28.420Z,67.13
2019-06-07T20:17:25.754Z,67.36
2019-06-07T20:19:32.317Z,67.42
2019-06-07T20:21:38.785Z,67.53
2019-06-07T20:23:45.272Z,67.78
2019-06-07T20:25:51.763Z,68.13
2019-06-07T20:27:59.658Z,68.36
2019-06-07T20:30:12.695Z,68.52
2019-06-07T20:32:23.000Z,68.80
2019-06-07T20:34:34.405Z,68.72
2019-06-07T20:36:45.824Z,69.25
2019-06-07T20:38:52.735Z,69.21
2019-06-07T20:41:01.130Z,69.37
2019-06-07T20:43:09.294Z,69.47
2019-06-07T20:45:32.377Z,69.95
2019-06-07T20:47:25.802Z,69.68
2019-06-07T20:49:32.321Z,70.08
2019-06-07T20:51:40.550Z,70.11
2019-06-07T20:53:48.088Z,70.38
2019-06-07T20:55:54.590Z,70.78
2019-06-07T20:58:03.780Z,70.73
2019-06-07T21:00:21.435Z,70.97
2019-06-07T21:02:23.832Z,71.09
2019-06-07T21:04:30.283Z,71.37
2019-06-07T21:06:36.799Z,71.59
2019-06-07T21:08:44.465Z,71.81
2019-06-07T21:10:50.942Z,71.94
2019-06-07T21:12:57.542Z,71.69
2019-06-07T21:15:10.751Z,71.75
2019-06-07T21:17:15.691Z,71.80
2019-06-07T21:19:23.362Z,72.17
2019-06-07T21:21:30.982Z,72.45
2019-06-07T21:23:37.438Z,72.51
2019-06-07T21:25:43.963Z,72.45
2019-06-07T21:27:50.383Z,72.70
2019-06-07T21:29:57.906Z,72.87
2019-06-07T21:32:05.439Z,73.33
2019-06-07T21:34:14.090Z,73.39
2019-06-07T21:36:20.372Z,73.67
2019-06-07T21:38:28.642Z,73.94
2019-06-07T21:40:35.112Z,73.77
2019-06-07T21:42:41.505Z,74.34
2019-06-07T21:44:47.985Z,74.47
2019-06-07T21:46:54.403Z,74.29
2019-06-07T21:49:02.125Z,74.52
2019-06-07T21:51:08.730Z,74.39
2019-06-07T21:53:15.166Z,74.79
2019-06-07T21:55:21.583Z,74.81
2019-06-07T21:57:28.110Z,75.04
2019-06-07T21:59:34.633Z,75.39
2019-06-07T22:01:41.322Z,75.39
2019-06-07T22:03:48.192Z,75.70
2019-06-07T22:05:56.341Z,76.02
2019-06-07T22:08:03.776Z,76.27
2019-06-07T22:10:10.767Z,76.29
2019-06-07T22:12:17.242Z,76.44
2019-06-07T22:14:23.664Z,76.77
2019-06-07T22:16:30.074Z,76.96
2019-06-07T22:18:36.616Z,77.17
2019-06-07T22:20:43.189Z,77.42
2019-06-07T22:22:49.623Z,77.56
2019-06-07T22:24:56.058Z,77.78
2019-06-07T22:27:02.470Z,77.85
2019-06-07T22:29:10.248Z,78.26
2019-06-07T22:31:17.463Z,78.31
2019-06-07T22:33:23.881Z,78.16
2019-06-07T22:35:30.279Z,78.20
2019-06-07T22:37:36.885Z,78.39
2019-06-07T22:39:43.447Z,78.46
2019-06-07T22:41:50.959Z,78.65
2019-06-07T22:43:57.489Z,78.65
2019-06-07T22:46:04.026Z,78.66
2019-06-07T22:48:11.340Z,78.78
2019-06-07T22:50:19.745Z,78.91
2019-06-07T22:52:26.170Z,79.21
2019-06-07T22:54:32.607Z,79.49
2019-06-07T22:56:40.653Z,79.60
2019-06-07T22:58:47.114Z,79.89
2019-06-07T23:00:53.606Z,79.97
2019-06-07T23:03:00.938Z,80.18
2019-06-07T23:05:08.532Z,80.18
2019-06-07T23:07:15.086Z,80.40
2019-06-07T23:09:22.455Z,80.44
2019-06-07T23:11:29.006Z,80.54
2019-06-07T23:13:35.592Z,80.59
2019-06-07T23:15:42.140Z,80.68
2019-06-07T23:17:48.700Z,80.73
2019-06-07T23:19:55.122Z,80.59
2019-06-07T23:22:01.647Z,80.77
2019-06-07T23:24:08.119Z,81.11
2019-06-07T23:26:14.669Z,81.37
2019-06-07T23:28:21.100Z,81.57
2019-06-07T23:30:27.581Z,81.96
2019-06-07T23:32:33.973Z,82.07
2019-06-07T23:34:40.415Z,82.25
2019-06-07T23:36:46.890Z,82.38
2019-06-07T23:38:53.366Z,82.32
2019-06-07T23:40:59.810Z,82.40
2019-06-07T23:43:06.263Z,82.67
2019-06-07T23:45:13.812Z,82.78
2019-06-07T23:47:22.032Z,83.12
2019-06-07T23:49:28.718Z,83.17
2019-06-07T23:51:35.206Z,83.16
2019-06-07T23:53:41.655Z,83.62
2019-06-07T23:55:48.102Z,83.43
2019-06-07T23:57:55.758Z,83.48
